Date,TemperatureHighF,TemperatureAvgF,TemperatureLowF,DewpointHighF,DewpointAvgF,DewpointLowF,HumidityHigh,HumidityAvg,HumidityLow,PressureMaxIn,PressureMinIn,WindSpeedMaxMPH,WindSpeedAvgMPH,GustSpeedMaxMPH,PrecipitationSumIn
2013-3-1,30,26,23,28,23,20,92,89,84,30.09,29.89,9,2,12,0.01
2013-3-2,23,22,21,21,18,17,90,87,80,30.08,30.05,7,2,11,0.00
2013-3-3,24,21,19,20,17,15,89,86,75,30.10,30.02,12,4,19,0.00
2013-3-4,24,22,18,20,18,15,89,86,83,30.24,30.10,12,4,17,0.00
2013-3-5,37,27,20,27,22,17,95,79,65,30.25,29.96,11,2,14,0.12
2013-3-6,40,33,27,29,26,22,83,73,58,30.25,29.95,13,3,15,0.02
2013-3-7,34,32,30,30,29,28,92,89,84,30.40,30.23,8,2,11,0.01
2013-3-8,38,32,26,28,25,22,92,78,57,30.54,30.39,10,2,16,0.08
2013-3-9,50,34,20,31,24,18,92,71,40,30.56,30.31,6,1,10,0.01
2013-3-10,64,51,41,33,27,22,51,40,31,30.32,30.08,17,5,20,0.00
2013-3-11,59,51,45,43,32,28,89,49,36,30.09,29.74,22,6,26,0.15
2013-3-12,45,35,31,42,32,27,92,88,80,30.05,29.79,10,3,14,0.30
2013-3-13,32,28,22,27,23,17,90,81,70,30.15,29.99,15,4,22,0.03
2013-3-14,28,24,21,20,17,14,90,74,59,30.27,30.15,18,6,21,0.01
2013-3-15,33,28,19,30,25,15,91,86,76,30.24,29.96,14,2,17,0.01
2013-3-16,30,27,24,28,23,19,90,83,75,30.11,29.87,9,1,10,0.00
2013-3-17,31,25,18,21,17,13,89,74,56,30.42,30.11,8,2,11,0.00
2013-3-18,32,27,20,30,21,13,90,80,63,30.40,29.83,23,7,39,0.00
2013-3-19,34,29,24,32,25,20,92,86,73,30.00,29.82,20,4,23,0.00
2013-3-20,27,23,16,24,19,12,90,86,74,30.02,29.98,14,3,18,0.00
2013-3-21,26,20,14,22,16,11,89,84,67,29.99,29.92,14,3,17,0.00
2013-3-22,27,24,22,23,21,19,92,85,78,30.14,29.95,14,4,18,0.00
2013-3-23,34,28,24,25,23,20,92,80,65,30.19,30.11,11,3,14,0.02
2013-3-24,36,29,19,24,21,16,91,75,57,30.18,29.75,9,2,15,0.11
2013-3-25,36,32,28,32,27,23,92,84,70,29.87,29.68,10,2,14,0.17
2013-3-26,42,34,27,30,27,23,89,78,57,30.13,29.87,12,3,14,0.02
2013-3-27,37,33,30,30,28,24,91,81,69,30.22,30.11,12,4,18,0.01
2013-3-28,37,33,30,33,30,28,96,90,82,30.37,30.19,7,2,10,0.11
2013-3-29,45,38,31,33,28,24,90,71,47,30.36,30.29,13,2,17,0.00
2013-3-30,50,37,23,28,24,20,89,61,33,30.35,30.16,7,1,13,0.00
2013-3-31,50,42,35,41,32,22,91,69,47,30.16,29.75,14,4,22,0.09